Time;durP1;ratioP1;P1;durP2;ratioP2;P2;SDS_P1;SDS_P2;PMS_P1;PMS_P2;Temp;Humidity;BMP_temperature;BMP_pressure;BME280_temperature;BME280_humidity;BME280_pressure;Samples;Min_cycle;Max_cycle;Signal;HPM_P1;HPM_P2
2022/05/23 00:02:18;;;;;;;9.45;6.25;;;;;;;12.18;76.30;98493.25;1778013;80;21531;-43
2022/05/23 00:04:46;;;;;;;12.35;6.60;;;;;;;12.17;76.56;98491.70;1778144;80;21048;-43
2022/05/23 00:07:19;;;;;;;9.73;6.12;;;;;;;12.13;76.52;98491.70;1778466;80;21902;-43
2022/05/23 00:09:47;;;;;;;9.80;6.35;;;;;;;12.08;76.80;98498.11;1778158;80;20934;-43
2022/05/23 00:12:16;;;;;;;9.53;6.62;;;;;;;12.03;76.96;98502.58;1778052;80;20934;-43
2022/05/23 00:14:44;;;;;;;8.95;5.78;;;;;;;12.00;77.12;98502.79;1778061;80;20989;-43
2022/05/23 00:17:12;;;;;;;12.33;6.80;;;;;;;11.98;77.09;98501.03;1778062;80;21052;-43
2022/05/23 00:19:40;;;;;;;11.88;7.05;;;;;;;12.00;77.26;98498.72;1778238;80;21292;-43
2022/05/23 00:22:09;;;;;;;11.73;7.37;;;;;;;12.01;77.33;98503.54;1778209;80;20985;-43
2022/05/23 00:24:36;;;;;;;9.33;7.10;;;;;;;11.99;77.11;98502.59;1777998;80;20981;-43
2022/05/23 00:27:05;;;;;;;11.57;7.08;;;;;;;11.97;77.06;98502.19;1778007;80;20938;-44
2022/05/23 00:29:31;;;;;;;12.15;8.13;;;;;;;12.03;76.98;98505.30;1747715;80;21005;-43
2022/05/23 00:37:29;;;;;;;13.22;7.45;;;;;;;12.06;76.95;98513.44;1777825;80;20917;-43
2022/05/23 00:39:56;;;;;;;10.25;7.15;;;;;;;12.05;76.76;98519.28;1777741;80;21032;-43
2022/05/23 00:45:18;;;;;;;13.10;7.90;;;;;;;12.04;76.87;98522.58;1778018;80;21562;-43
2022/05/23 00:47:48;;;;;;;12.33;6.80;;;;;;;12.02;76.79;98522.17;1778071;80;21000;-43
2022/05/23 00:50:18;;;;;;;10.85;6.35;;;;;;;11.99;76.76;98522.96;1778037;80;21029;-43
2022/05/23 00:52:52;;;;;;;10.95;6.83;;;;;;;12.00;76.67;98519.67;1778013;80;21539;-44
2022/05/23 00:55:33;;;;;;;12.90;6.58;;;;;;;12.01;76.68;98519.84;1778083;80;21045;-44
2022/05/23 00:58:11;;;;;;;8.73;6.65;;;;;;;12.07;76.85;98522.37;1747733;80;21105;-44
2022/05/23 01:00:38;;;;;;;9.25;6.30;;;;;;;12.15;76.68;98528.01;1777899;80;20996;-44
2022/05/23 01:03:11;;;;;;;9.70;6.33;;;;;;;12.17;76.44;98529.73;1778016;80;20898;-43
2022/05/23 01:05:39;;;;;;;11.40;6.03;;;;;;;12.21;76.08;98530.50;1778114;80;21033;-43
2022/05/23 01:08:08;;;;;;;5.43;4.33;;;;;;;12.30;75.46;98525.44;1778255;80;21072;-44
2022/05/23 01:10:37;;;;;;;9.05;5.78;;;;;;;12.30;75.46;98525.44;1777535;80;21538;-44
2022/05/23 01:13:04;;;;;;;10.63;6.70;;;;;;;12.33;75.46;98532.83;1778017;80;21300;-43
2022/05/23 01:15:31;;;;;;;7.75;6.20;;;;;;;12.34;75.43;98530.89;1747799;80;21028;-43
2022/05/23 01:17:58;;;;;;;6.17;5.58;;;;;;;12.29;75.22;98527.20;1777966;80;21638;-43
2022/05/23 01:20:25;;;;;;;7.62;6.00;;;;;;;12.26;75.19;98528.75;1778059;80;20940;-44
2022/05/23 01:23:39;;;;;;;9.18;6.12;;;;;;;12.29;75.05;98538.08;1782719;80;21130;-43
2022/05/23 01:26:13;;;;;;;10.40;6.25;;;;;;;12.33;74.84;98537.48;1782930;80;21003;-43
2022/05/23 01:28:44;;;;;;;8.33;6.10;;;;;;;12.25;74.72;98539.42;1783656;79;21007;-43
2022/05/23 01:31:15;;;;;;;8.65;6.53;;;;;;;12.20;74.98;98542.53;1783389;80;21642;-44
2022/05/23 01:33:42;;;;;;;6.80;5.72;;;;;;;12.17;74.87;98541.38;1783913;79;21035;-43
2022/05/23 01:36:13;;;;;;;8.05;5.83;;;;;;;12.08;74.96;98543.72;1783701;79;21133;-44
2022/05/23 01:38:40;;;;;;;7.70;6.15;;;;;;;12.06;75.12;98541.18;1784345;80;21033;-44
2022/05/23 01:41:10;;;;;;;8.50;6.20;;;;;;;12.06;75.10;98550.11;1783558;79;20937;-43
2022/05/23 01:43:39;;;;;;;6.05;4.92;;;;;;;12.05;75.16;98549.16;1784200;80;21627;-44
2022/05/23 01:46:10;;;;;;;8.33;6.55;;;;;;;12.02;75.36;98543.13;1781332;80;21075;-44
2022/05/23 01:48:39;;;;;;;9.03;6.40;;;;;;;11.92;75.22;98546.62;1733651;80;21139;-43
2022/05/23 01:51:06;;;;;;;11.03;6.37;;;;;;;11.84;75.60;98550.50;1784151;80;21032;-43
2022/05/23 01:53:34;;;;;;;11.65;5.97;;;;;;;11.76;75.59;98549.12;1784038;80;20988;-43
2022/05/23 01:56:05;;;;;;;6.75;5.80;;;;;;;11.71;75.94;98550.83;1783571;80;21716;-43
2022/05/23 02:01:32;;;;;;;8.05;5.85;;;;;;;11.70;75.97;98554.73;1784118;79;21241;-43
2022/05/23 02:03:58;;;;;;;7.83;5.97;;;;;;;11.64;76.04;98567.13;1784164;79;21847;-43
2022/05/23 02:06:27;;;;;;;8.15;6.20;;;;;;;11.59;75.69;98557.22;1783351;80;20969;-44
2022/05/23 02:08:55;;;;;;;8.85;6.20;;;;;;;11.51;75.75;98567.30;1783459;80;21013;-43
2022/05/23 02:11:23;;;;;;;7.35;5.28;;;;;;;11.48;75.82;98563.20;1783867;79;20898;-44
2022/05/23 02:13:50;;;;;;;6.97;6.30;;;;;;;11.43;76.00;98560.28;1783911;80;21139;-44
2022/05/23 02:16:23;;;;;;;7.55;6.22;;;;;;;11.44;75.99;98567.27;1782214;80;20933;-43
2022/05/23 02:18:54;;;;;;;12.07;6.55;;;;;;;11.44;75.86;98564.56;1783911;79;21028;-44
2022/05/23 02:21:21;;;;;;;8.18;6.33;;;;;;;11.38;75.88;98563.95;1783930;80;21558;-44
2022/05/23 02:23:48;;;;;;;10.03;6.90;;;;;;;11.28;76.35;98565.47;1783915;79;21083;-44
2022/05/23 02:26:15;;;;;;;7.33;6.05;;;;;;;11.22;76.46;98568.37;1783609;80;23159;-43
2022/05/23 02:28:45;;;;;;;7.93;6.57;;;;;;;11.18;76.63;98573.77;1734458;80;21016;-43
2022/05/23 02:31:13;;;;;;;9.40;6.00;;;;;;;11.20;76.82;98576.11;1782639;80;21056;-43
2022/05/23 02:33:45;;;;;;;8.03;6.12;;;;;;;11.17;76.59;98581.73;1781622;80;21017;-43
2022/05/23 02:36:19;;;;;;;7.87;5.70;;;;;;;11.16;76.71;98584.83;1782895;80;20997;-43
2022/05/23 02:38:46;;;;;;;6.55;5.50;;;;;;;11.19;76.78;98585.41;1783910;80;21803;-44
2022/05/23 02:41:14;;;;;;;7.67;6.00;;;;;;;11.25;76.58;98586.02;1783526;79;21518;-44
2022/05/23 02:43:42;;;;;;;7.10;5.55;;;;;;;11.30;76.48;98586.23;1783725;80;21628;-44
2022/05/23 02:46:13;;;;;;;7.90;6.33;;;;;;;11.31;76.12;98585.86;1783632;79;20965;-43
2022/05/23 02:48:43;;;;;;;11.08;6.35;;;;;;;11.34;76.18;98597.87;1778584;80;21084;-44
2022/05/23 02:51:09;;;;;;;9.33;6.20;;;;;;;11.33;76.10;98597.66;1783749;79;21216;-43
2022/05/23 02:53:37;;;;;;;7.83;5.90;;;;;;;11.33;75.98;98601.16;1784023;80;20941;-43
2022/05/23 02:56:04;;;;;;;7.65;5.70;;;;;;;11.31;75.86;98593.22;1783798;80;21362;-43
2022/05/23 02:58:31;;;;;;;10.82;6.92;;;;;;;11.32;75.89;98598.84;1783937;80;20957;-43
2022/05/23 03:00:57;;;;;;;8.98;6.45;;;;;;;11.32;75.87;98595.55;1783856;80;21051;-43
2022/05/23 03:03:26;;;;;;;10.13;5.85;;;;;;;11.33;75.89;98600.38;1783746;79;21196;-44
2022/05/23 03:05:58;;;;;;;12.07;6.20;;;;;;;11.33;76.05;98603.09;1783720;80;21507;-43
2022/05/23 03:08:27;;;;;;;9.30;6.35;;;;;;;11.40;75.95;98605.06;1783835;80;20938;-44
2022/05/23 03:10:58;;;;;;;;;;;;;;;11.44;75.72;98605.27;1758251;80;20925;-44
2022/05/23 03:13:25;;;;;;;;;;;;;;;11.43;75.55;98612.43;1786497;80;20665;-43
2022/05/23 03:15:53;;;;;;;9.25;6.53;;;;;;;11.35;75.76;98610.28;1783945;80;21145;-44
2022/05/23 03:18:24;;;;;;;7.85;6.85;;;;;;;11.32;75.80;98611.84;1783949;80;20925;-43
2022/05/23 03:20:59;;;;;;;8.75;7.08;;;;;;;11.35;75.78;98614.36;1783694;80;21463;-44
2022/05/23 03:29:01;;;;;;;7.47;6.15;;;;;;;11.37;75.70;98621.55;1778129;80;21271;-43
2022/05/23 03:31:28;;;;;;;7.67;6.87;;;;;;;11.36;75.30;98626.77;1778019;80;21522;-43
2022/05/23 03:33:56;;;;;;;9.18;7.05;;;;;;;11.33;74.86;98631.01;1777947;80;20927;-44
2022/05/23 03:36:23;;;;;;;10.15;6.10;;;;;;;11.25;74.91;98624.58;1777978;80;21053;-43
2022/05/23 03:38:52;;;;;;;8.93;6.78;;;;;;;11.22;75.06;98633.50;1778038;80;21488;-44
2022/05/23 03:41:21;;;;;;;9.35;6.90;;;;;;;11.26;75.15;98626.14;1777649;80;21244;-43
2022/05/23 03:43:49;;;;;;;7.45;6.58;;;;;;;11.28;75.13;98633.31;1778029;80;21029;-44
2022/05/23 03:46:16;;;;;;;7.95;6.60;;;;;;;11.33;75.24;98635.66;1777865;80;20992;-43
2022/05/23 03:48:43;;;;;;;8.63;7.37;;;;;;;11.40;75.18;98637.05;1777868;80;21008;-43
2022/05/23 03:51:11;;;;;;;12.07;6.40;;;;;;;11.44;74.78;98647.34;1777873;80;21009;-44
2022/05/23 03:53:38;;;;;;;9.08;6.83;;;;;;;11.49;74.68;98643.48;1778123;80;21152;-44
2022/05/23 03:56:08;;;;;;;7.50;6.78;;;;;;;11.54;74.50;98642.53;1777826;80;21004;-43
2022/05/23 03:58:38;;;;;;;7.67;6.83;;;;;;;11.56;74.46;98641.58;1778297;80;21011;-44
2022/05/23 04:01:21;;;;;;;10.28;7.55;;;;;;;11.60;74.32;98642.94;1777880;80;21033;-43
2022/05/23 04:03:50;;;;;;;9.75;7.35;;;;;;;11.60;74.06;98647.02;1777729;80;21005;-44
2022/05/23 04:06:17;;;;;;;10.85;7.03;;;;;;;11.64;73.96;98649.16;1778148;80;21223;-43
2022/05/23 04:08:49;;;;;;;12.90;6.70;;;;;;;11.69;74.22;98646.06;1776556;80;21068;-44
2022/05/23 04:11:17;;;;;;;10.00;7.30;;;;;;;11.74;73.99;98643.79;1748150;80;20890;-43
2022/05/23 04:13:44;;;;;;;11.08;6.70;;;;;;;11.83;74.00;98645.36;1778155;80;21075;-44
2022/05/23 04:16:11;;;;;;;10.48;6.92;;;;;;;11.90;73.68;98642.66;1778128;80;21084;-44
2022/05/23 04:18:38;;;;;;;8.53;7.20;;;;;;;11.95;73.33;98642.29;1778121;80;21229;-43
2022/05/23 04:21:06;;;;;;;7.40;6.28;;;;;;;11.99;73.29;98641.71;1778018;80;21013;-44
2022/05/23 04:23:35;;;;;;;10.15;6.85;;;;;;;12.07;72.98;98643.27;1782015;80;21574;-44
2022/05/23 04:26:08;;;;;;;9.15;6.65;;;;;;;12.08;72.46;98639.39;1783809;80;20978;-44
2022/05/23 04:28:35;;;;;;;7.67;6.80;;;;;;;12.12;72.43;98640.16;1783718;80;21001;-43
2022/05/23 04:31:03;;;;;;;7.33;6.30;;;;;;;12.18;72.17;98642.70;1783823;79;21139;-43
2022/05/23 04:37:31;;;;;;;9.50;6.40;;;;;;;12.33;71.27;98632.04;1797161;79;22178;-42
2022/05/23 04:39:58;;;;;;;8.45;6.40;;;;;;;12.23;71.24;98642.90;1757080;81;20970;-42
2022/05/23 04:42:25;;;;;;;7.90;6.12;;;;;;;12.24;71.28;98645.81;1757132;81;21139;-42
2022/05/23 04:44:52;;;;;;;8.08;6.33;;;;;;;12.27;71.30;98642.31;1757277;81;21854;-43
2022/05/23 04:50:06;;;;;;;8.68;6.60;;;;;;;12.28;71.05;98643.30;1757419;81;21614;-43
2022/05/23 04:52:38;;;;;;;8.18;6.35;;;;;;;12.29;71.36;98638.05;1756577;81;21008;-43
2022/05/23 04:55:08;;;;;;;7.53;6.10;;;;;;;12.33;71.33;98644.27;1707021;83;21105;-43
2022/05/23 04:57:36;;;;;;;8.18;6.15;;;;;;;12.33;71.21;98638.83;1723585;83;20926;-43
2022/05/23 05:00:06;;;;;;;8.15;6.30;;;;;;;12.35;70.98;98638.42;1723726;83;20968;-43
2022/05/23 05:02:36;;;;;;;8.80;6.15;;;;;;;12.36;70.56;98639.41;1723441;83;21049;-43
2022/05/23 05:05:04;;;;;;;6.65;5.97;;;;;;;12.36;70.72;98646.78;1723706;83;21015;-43
2022/05/23 05:07:34;;;;;;;10.53;6.70;;;;;;;12.38;71.00;98640.38;1718826;83;21253;-43
2022/05/23 05:10:01;;;;;;;8.45;6.67;;;;;;;12.35;70.79;98644.64;1723523;83;21507;-43
2022/05/23 05:12:28;;;;;;;10.30;6.10;;;;;;;12.31;70.81;98649.88;1723715;83;20987;-43
2022/05/23 05:14:55;;;;;;;13.10;7.10;;;;;;;12.25;71.16;98651.45;1723713;83;20937;-43
2022/05/23 05:17:23;;;;;;;9.20;6.20;;;;;;;12.27;71.76;98648.53;1723726;83;21538;-43
2022/05/23 05:19:50;;;;;;;7.83;5.90;;;;;;;12.40;72.26;98657.06;1723746;83;21142;-43
2022/05/23 05:22:38;;;;;;;8.23;5.87;;;;;;;12.51;71.90;98655.12;1723737;83;21613;-43
2022/05/23 05:25:13;;;;;;;7.20;5.90;;;;;;;12.62;71.50;98656.69;1721607;83;20932;-43
2022/05/23 05:27:41;;;;;;;11.48;6.12;;;;;;;12.72;71.02;98658.43;1722742;83;21060;-43
2022/05/23 05:30:12;;;;;;;9.80;5.95;;;;;;;12.77;70.90;98660.17;1723645;83;21043;-43
2022/05/23 05:32:49;;;;;;;8.18;5.58;;;;;;;12.85;70.74;98664.42;1723704;83;20924;-43
2022/05/23 05:35:37;;;;;;;7.50;5.58;;;;;;;12.91;70.84;98658.80;1723616;83;21068;-43
2022/05/23 05:38:17;;;;;;;6.67;5.40;;;;;;;13.01;70.65;98663.44;1723879;83;21514;-43
2022/05/23 05:40:48;;;;;;;9.15;5.17;;;;;;;13.15;70.64;98663.23;1722624;81;21420;-43
2022/05/23 05:43:29;;;;;;;6.22;5.45;;;;;;;13.22;69.46;98668.06;1697772;84;21540;-43
2022/05/23 05:46:02;;;;;;;7.05;5.17;;;;;;;13.30;69.39;98664.16;1715777;83;21590;-43
2022/05/23 05:48:40;;;;;;;7.62;5.20;;;;;;;13.41;69.38;98660.02;1707195;84;20956;-43
2022/05/23 05:51:10;;;;;;;8.80;5.25;;;;;;;13.51;68.88;98662.54;1707802;84;21563;-43
2022/05/23 05:53:39;;;;;;;8.18;5.12;;;;;;;13.59;68.88;98666.19;1676229;84;21111;-43
2022/05/23 05:56:09;;;;;;;6.47;5.05;;;;;;;13.69;68.39;98669.45;1678457;85;21135;-43
2022/05/23 05:58:38;;;;;;;5.72;4.78;;;;;;;13.78;68.21;98672.52;1679503;85;21265;-43
2022/05/23 06:01:05;;;;;;;9.90;5.05;;;;;;;13.88;67.45;98673.05;1679249;85;21558;-43
2022/05/23 06:03:34;;;;;;;9.15;5.28;;;;;;;13.97;67.29;98669.88;1679040;85;21550;-43
2022/05/23 06:11:41;;;;;;;5.25;4.03;;;;;;;14.23;67.00;98672.03;1679190;85;21213;-43
2022/05/23 06:14:16;;;;;;;6.25;3.75;;;;;;;14.37;66.21;98682.12;1679099;85;21610;-44
2022/05/23 06:16:45;;;;;;;4.55;3.50;;;;;;;14.51;65.72;98677.14;1653028;85;21078;-44
2022/05/23 06:19:14;;;;;;;4.67;3.95;;;;;;;14.63;64.89;98686.19;1678832;85;20976;-43
2022/05/23 06:21:46;;;;;;;7.47;4.45;;;;;;;14.71;64.25;98683.60;1675115;85;21060;-44
2022/05/23 06:24:15;;;;;;;5.87;3.50;;;;;;;14.80;64.35;98678.45;1679020;85;21012;-43
2022/05/23 06:26:44;;;;;;;5.03;3.70;;;;;;;14.90;62.96;98683.63;1679364;85;21024;-43
2022/05/23 06:29:30;;;;;;;6.47;3.25;;;;;;;14.97;62.87;98680.23;1679241;85;21056;-44
2022/05/23 06:31:58;;;;;;;7.20;3.35;;;;;;;15.04;61.79;98670.62;1679246;85;21351;-43
2022/05/23 06:34:26;;;;;;;8.60;3.58;;;;;;;15.13;61.16;98679.69;1679225;85;21089;-44
2022/05/23 06:36:56;;;;;;;6.53;3.80;;;;;;;15.21;61.42;98677.05;1675854;84;21028;-44
2022/05/23 06:39:25;;;;;;;2.98;2.60;;;;;;;15.29;61.57;98673.67;1681187;85;21546;-43
2022/05/23 06:42:00;;;;;;;4.22;3.10;;;;;;;15.37;59.46;98672.41;1621427;86;21727;-44
2022/05/23 06:44:34;;;;;;;6.87;3.30;;;;;;;15.40;57.51;98666.89;1650474;86;21107;-43
2022/05/23 06:47:19;;;;;;;4.60;3.37;;;;;;;15.38;57.85;98672.59;1654225;86;21018;-43
2022/05/23 06:50:08;;;;;;;8.40;3.65;;;;;;;15.39;57.95;98674.15;1574430;90;21251;-43
2022/05/23 06:52:40;;;;;;;8.05;3.90;;;;;;;15.41;59.44;98677.23;1600769;89;21152;-44
2022/05/23 06:55:14;;;;;;;4.28;3.25;;;;;;;15.47;59.11;98673.65;1615303;86;21580;-44
2022/05/23 06:57:43;;;;;;;8.50;3.90;;;;;;;15.58;59.20;98673.56;1622756;88;21535;-43
2022/05/23 07:00:12;;;;;;;5.00;3.40;;;;;;;15.69;58.85;98672.81;1625922;88;21084;-44
2022/05/23 07:02:39;;;;;;;8.30;4.15;;;;;;;15.75;58.64;98673.14;1601737;88;21199;-44
2022/05/23 07:13:39;;;;;;;7.28;4.42;;;;;;;16.06;56.26;98674.67;1627309;88;21330;-43
2022/05/23 07:16:07;;;;;;;10.48;4.83;;;;;;;16.22;57.28;98678.91;1627629;88;21149;-44
2022/05/23 07:18:34;;;;;;;9.40;5.85;;;;;;;16.33;54.79;98670.55;1627596;88;21049;-44
2022/05/23 07:21:03;;;;;;;5.83;4.83;;;;;;;16.31;53.85;98670.21;1626989;88;21040;-43
2022/05/23 07:23:32;;;;;;;7.35;5.47;;;;;;;16.23;52.21;98674.22;1626034;88;21112;-44
2022/05/23 07:26:08;;;;;;;8.55;6.22;;;;;;;16.11;52.97;98670.70;1626950;88;21503;-43
2022/05/23 07:28:53;;;;;;;9.53;5.87;;;;;;;16.04;53.13;98676.45;1627453;88;21954;-43
2022/05/23 07:31:22;;;;;;;12.98;5.55;;;;;;;16.00;53.70;98679.83;1627553;88;21064;-44
2022/05/23 07:33:49;;;;;;;6.35;4.67;;;;;;;16.07;53.80;98678.34;1602021;88;20985;-43
2022/05/23 07:36:18;;;;;;;8.90;5.75;;;;;;;16.18;50.55;98676.83;1631547;85;20988;-43
2022/05/23 07:38:46;;;;;;;10.00;6.55;;;;;;;16.20;49.81;98684.63;1679150;85;21018;-44
2022/05/23 07:41:14;;;;;;;12.13;7.42;;;;;;;16.15;50.65;98682.36;1676636;85;21984;-43
2022/05/23 07:43:43;;;;;;;13.72;7.03;;;;;;;16.14;51.26;98674.74;1679019;85;21025;-43
2022/05/23 07:46:13;;;;;;;14.70;8.13;;;;;;;16.17;52.22;98682.73;1679087;85;21041;-43
2022/05/23 07:48:47;;;;;;;12.95;8.00;;;;;;;16.20;52.86;98676.42;1678934;85;20965;-43
2022/05/23 07:51:16;;;;;;;11.35;7.72;;;;;;;16.20;52.32;98675.84;1679289;85;21096;-43
2022/05/23 08:02:04;;;;;;;8.10;5.22;;;;;;;16.27;52.47;98682.55;1678220;85;21354;-43
2022/05/23 08:04:32;;;;;;;9.03;4.95;;;;;;;16.29;51.27;98677.45;1713825;83;21034;-44
2022/05/23 08:07:00;;;;;;;4.35;3.72;;;;;;;16.34;52.61;98673.47;1679256;85;21129;-43
2022/05/23 08:09:28;;;;;;;7.42;4.20;;;;;;;16.40;50.73;98667.13;1713559;83;20994;-44
2022/05/23 08:12:00;;;;;;;6.40;4.17;;;;;;;16.45;51.32;98672.13;1713191;82;21008;-44
2022/05/23 08:14:27;;;;;;;8.38;4.53;;;;;;;16.55;51.16;98675.11;1679073;85;21059;-44
2022/05/23 08:16:56;;;;;;;7.35;3.95;;;;;;;16.60;50.47;98674.08;1678770;85;21056;-43
2022/05/23 08:19:40;;;;;;;7.75;3.72;;;;;;;16.65;50.26;98672.23;1713699;83;21240;-43
2022/05/23 08:22:11;;;;;;;10.20;3.90;;;;;;;16.74;49.24;98673.06;1712987;82;21463;-43
2022/05/23 08:24:40;;;;;;;6.67;4.28;;;;;;;16.87;49.51;98669.89;1678551;85;21028;-43
2022/05/23 08:27:07;;;;;;;5.97;3.95;;;;;;;17.02;49.59;98661.61;1703366;83;20966;-43
2022/05/23 08:29:36;;;;;;;7.42;4.50;;;;;;;17.26;49.00;98671.92;1713605;82;21022;-43
2022/05/23 08:32:07;;;;;;;12.30;4.28;;;;;;;17.41;48.61;98668.31;1679011;85;21099;-43
2022/05/23 08:34:36;;;;;;;5.33;3.72;;;;;;;17.52;48.04;98664.17;1678916;85;20952;-43
2022/05/23 08:37:04;;;;;;;6.37;3.77;;;;;;;17.64;48.71;98669.63;1681349;85;21039;-43
2022/05/23 08:39:32;;;;;;;8.23;3.72;;;;;;;17.84;47.88;98676.45;1721454;83;21036;-43
2022/05/23 08:42:12;;;;;;;5.10;3.55;;;;;;;18.09;46.80;98667.09;1721556;83;21041;-43
2022/05/23 08:45:13;;;;;;;9.55;4.03;;;;;;;18.33;46.13;98659.48;1685680;85;21233;-43
2022/05/23 08:48:09;;;;;;;6.65;3.60;;;;;;;18.45;45.47;98673.89;1721583;82;21551;-43
2022/05/23 08:51:15;;;;;;;6.05;2.85;;;;;;;18.46;45.23;98672.69;1721174;82;21483;-43
2022/05/23 08:54:23;;;;;;;5.33;3.30;;;;;;;18.43;44.25;98679.05;1720755;83;20981;-43
2022/05/23 08:57:03;;;;;;;4.42;3.22;;;;;;;18.37;43.99;98669.78;1721422;83;21808;-43
2022/05/23 08:59:45;;;;;;;6.72;3.35;;;;;;;18.36;44.49;98678.61;1721848;83;22145;-42
2022/05/23 09:02:19;;;;;;;5.60;3.60;;;;;;;18.33;43.32;98675.36;1720028;83;20941;-43
2022/05/23 09:04:54;;;;;;;5.92;3.40;;;;;;;18.28;43.60;98677.23;1686441;85;21286;-43
2022/05/23 09:07:41;;;;;;;9.83;3.87;;;;;;;18.28;44.17;98674.49;1686348;85;21013;-42
2022/05/23 09:10:25;;;;;;;5.53;3.17;;;;;;;18.30;43.43;98676.19;1686363;85;21551;-43
2022/05/23 09:12:54;;;;;;;4.92;3.35;;;;;;;18.24;43.77;98675.95;1721493;82;21114;-42
2022/05/23 09:15:21;;;;;;;5.37;3.40;;;;;;;18.36;45.00;98669.59;1721280;83;21054;-43
2022/05/23 09:17:54;;;;;;;4.92;2.80;;;;;;;18.51;42.40;98679.05;1686733;85;21036;-43
2022/05/23 09:20:43;;;;;;;6.92;3.20;;;;;;;18.60;42.08;98670.41;1686630;85;20998;-43
2022/05/23 09:23:15;;;;;;;6.33;2.95;;;;;;;18.66;41.07;98675.56;1721626;83;21010;-42
2022/05/23 09:25:42;;;;;;;4.95;2.92;;;;;;;18.63;41.47;98671.53;1686122;85;21118;-43
2022/05/23 09:28:26;;;;;;;4.40;2.60;;;;;;;18.54;42.82;98674.86;1721477;83;20989;-42
2022/05/23 09:31:07;;;;;;;6.22;2.50;;;;;;;18.46;42.92;98683.08;1686383;85;21047;-42
2022/05/23 09:33:45;;;;;;;7.08;2.50;;;;;;;18.34;43.12;98677.50;1654377;85;21614;-42
2022/05/23 09:36:20;;;;;;;6.17;3.00;;;;;;;18.22;42.01;98679.71;1662331;85;21011;-42
2022/05/23 09:39:01;;;;;;;3.60;2.40;;;;;;;18.04;42.88;98673.08;1680214;85;21149;-43
2022/05/23 09:50:09;;;;;;;10.23;2.50;;;;;;;17.75;43.38;98673.70;1693219;82;21022;-42
2022/05/23 09:52:42;;;;;;;4.12;2.40;;;;;;;17.73;43.41;98668.45;1679229;85;21147;-42
2022/05/23 09:55:12;;;;;;;4.72;2.40;;;;;;;17.81;43.60;98673.98;1678850;85;21010;-42
2022/05/23 09:57:52;;;;;;;4.62;2.33;;;;;;;17.95;43.35;98675.05;1713846;83;21539;-43
2022/05/23 10:00:24;;;;;;;4.78;2.60;;;;;;;18.14;42.96;98678.94;1713764;82;22078;-42
2022/05/23 10:03:01;;;;;;;6.50;2.30;;;;;;;18.25;43.23;98685.70;1679128;85;21076;-42
2022/05/23 10:05:41;;;;;;;3.67;2.27;;;;;;;18.16;42.97;98681.41;1679581;85;21118;-42
2022/05/23 10:08:32;;;;;;;5.17;2.30;;;;;;;17.94;42.64;98676.23;1713732;83;21041;-42
2022/05/23 10:11:04;;;;;;;3.12;2.17;;;;;;;17.73;43.09;98684.31;1679317;85;21017;-42
2022/05/23 10:13:37;;;;;;;6.40;2.47;;;;;;;17.55;43.79;98687.21;1713896;83;21069;-42
2022/05/23 10:16:16;;;;;;;4.30;2.50;;;;;;;17.41;43.69;98700.59;1713080;82;21062;-42
2022/05/23 10:18:51;;;;;;;4.10;2.40;;;;;;;17.26;43.50;98697.35;1679285;85;21807;-42
2022/05/23 10:21:43;;;;;;;3.75;2.20;;;;;;;17.16;43.13;98692.06;1674590;85;21534;-43
2022/05/23 10:24:24;;;;;;;4.50;2.45;;;;;;;17.09;43.51;98697.69;1679300;85;21063;-42
2022/05/23 10:26:59;;;;;;;5.22;2.12;;;;;;;17.05;43.79;98695.58;1678509;85;21797;-42
2022/05/23 10:29:53;;;;;;;3.67;2.05;;;;;;;17.08;43.99;98693.39;1713755;83;20977;-43
2022/05/23 10:32:48;;;;;;;4.70;1.82;;;;;;;17.15;44.37;98698.73;1679211;85;21238;-42
2022/05/23 10:35:36;;;;;;;3.58;2.15;;;;;;;17.25;42.03;98695.80;1679323;85;20941;-42
2022/05/23 10:44:14;;;;;;;6.65;1.90;;;;;;;17.63;42.63;98700.38;1686728;85;21016;-43
2022/05/23 10:46:41;;;;;;;3.05;1.70;;;;;;;17.64;41.34;98708.78;1721489;83;21154;-43
2022/05/23 10:49:13;;;;;;;3.20;1.90;;;;;;;17.62;41.38;98709.78;1721353;83;21020;-43
2022/05/23 10:52:10;;;;;;;4.53;1.77;;;;;;;17.60;41.64;98708.67;1721591;83;21024;-43
2022/05/23 10:54:53;;;;;;;6.55;1.95;;;;;;;17.57;42.36;98710.25;1721592;83;20988;-43
2022/05/23 10:57:31;;;;;;;4.20;1.75;;;;;;;17.51;42.60;98700.98;1715757;83;21033;-43
2022/05/23 11:00:10;;;;;;;4.17;1.75;;;;;;;17.39;42.25;98699.64;1721924;82;21312;-43
2022/05/23 11:03:19;;;;;;;2.47;1.70;;;;;;;17.28;42.47;98706.53;1721408;83;20972;-43
2022/05/23 11:06:16;;;;;;;5.08;1.60;;;;;;;17.17;42.83;98708.69;1662180;85;21021;-43
2022/05/23 11:09:09;;;;;;;5.05;1.60;;;;;;;17.08;43.51;98708.45;1715573;83;20965;-43
2022/05/23 11:11:59;;;;;;;3.62;1.90;;;;;;;17.02;43.59;98713.64;1686173;85;21032;-43
2022/05/23 11:14:47;;;;;;;2.62;1.57;;;;;;;16.98;43.08;98714.30;1721760;82;21097;-44
2022/05/23 11:17:34;;;;;;;4.30;1.85;;;;;;;16.93;43.78;98712.81;1686445;84;21095;-43
2022/05/23 11:20:12;;;;;;;3.22;1.90;;;;;;;16.88;43.85;98711.92;1684527;85;21031;-43
2022/05/23 11:22:49;;;;;;;2.90;1.80;;;;;;;16.88;43.32;98716.03;1686813;85;21005;-43
2022/05/23 11:25:43;;;;;;;3.52;1.92;;;;;;;16.86;44.03;98710.77;1686158;85;21072;-43
2022/05/23 11:34:21;;;;;;;4.85;2.10;;;;;;;16.84;43.93;98705.73;1698772;83;21009;-43
2022/05/23 11:39:54;;;;;;;3.30;1.90;;;;;;;16.94;44.47;98708.86;1686481;85;21044;-42
2022/05/23 11:42:42;;;;;;;3.87;1.67;;;;;;;16.97;44.06;98703.16;1685864;85;21383;-43
2022/05/23 11:46:19;;;;;;;3.90;1.80;;;;;;;17.02;43.81;98716.97;1721352;82;21024;-42
2022/05/23 11:48:00;;;;;;;2.87;1.65;;;;;;;17.07;43.14;98712.38;1662749;85;21582;-42
2022/05/23 11:50:33;;;;;;;3.60;1.65;;;;;;;17.14;42.49;98712.24;1713342;83;21547;-42
2022/05/23 11:53:19;;;;;;;3.42;1.85;;;;;;;17.29;42.20;98714.91;1718416;82;21025;-43
2022/05/23 11:56:00;;;;;;;3.02;1.40;;;;;;;17.44;41.91;98701.11;1713536;83;21307;-43
2022/05/23 11:58:44;;;;;;;5.97;2.00;;;;;;;17.62;40.53;98704.30;1713404;83;20965;-42
2022/05/23 12:01:20;;;;;;;2.27;1.67;;;;;;;17.76;40.12;98703.27;1713394;83;21052;-42
2022/05/23 12:03:56;;;;;;;3.25;1.70;;;;;;;17.89;39.84;98702.02;1713589;83;21016;-42
2022/05/23 12:06:32;;;;;;;3.95;1.52;;;;;;;17.96;38.60;98703.98;1713546;83;21584;-43
2022/05/23 12:09:06;;;;;;;2.35;1.70;;;;;;;17.96;37.81;98697.14;1713410;83;21224;-43
2022/05/23 12:11:37;;;;;;;2.77;1.90;;;;;;;17.98;38.13;98699.46;1713764;83;20965;-43
2022/05/23 12:14:40;;;;;;;3.25;1.82;;;;;;;17.96;37.42;98701.25;1713752;83;20966;-43
2022/05/23 12:17:12;;;;;;;5.22;1.82;;;;;;;17.87;37.44;98701.65;1713676;83;21061;-43
2022/05/23 12:19:47;;;;;;;4.35;1.92;;;;;;;17.70;37.41;98702.98;1713701;83;20890;-43
2022/05/23 12:22:36;;;;;;;3.45;1.90;;;;;;;17.59;38.00;98704.38;1713990;83;21129;-43
2022/05/23 12:25:11;;;;;;;3.10;1.87;;;;;;;17.52;38.65;98705.28;1713948;83;21522;-43
2022/05/23 12:27:46;;;;;;;2.67;1.80;;;;;;;17.43;39.55;98704.30;1713772;83;21417;-43
2022/05/23 12:30:27;;;;;;;2.17;1.37;;;;;;;17.41;39.63;98705.30;1713720;83;21025;-43
2022/05/23 12:33:06;;;;;;;4.83;1.82;;;;;;;17.42;40.23;98702.16;1713599;83;21068;-43
2022/05/23 12:35:48;;;;;;;3.98;2.00;;;;;;;17.64;40.51;98702.52;1713508;83;21146;-43
2022/05/23 12:38:46;;;;;;;4.28;2.05;;;;;;;17.98;39.43;98705.72;1713621;83;20942;-43
2022/05/23 12:42:00;;;;;;;2.75;1.80;;;;;;;18.29;37.68;98702.11;1707818;83;20918;-43
2022/05/23 12:44:58;;;;;;;3.00;1.87;;;;;;;18.43;37.20;98717.48;1705747;83;20918;-43
2022/05/23 12:47:38;;;;;;;3.70;1.90;;;;;;;18.36;38.99;98718.40;1705413;84;21025;-43
2022/05/23 12:50:20;;;;;;;3.00;2.10;;;;;;;18.24;42.18;98720.45;1705850;84;21197;-43
2022/05/23 12:53:19;;;;;;;3.75;2.02;;;;;;;18.04;44.40;98729.31;1705491;84;21041;-43
2022/05/23 12:55:55;;;;;;;5.67;2.15;;;;;;;17.81;44.19;98730.94;1705435;84;21052;-43
2022/05/23 12:58:42;;;;;;;7.10;2.40;;;;;;;17.41;43.85;98723.11;1705445;83;21611;-43
2022/05/23 13:01:11;;;;;;;3.77;2.20;;;;;;;17.06;44.69;98728.04;1705585;84;21003;-43
2022/05/23 13:03:55;;;;;;;4.53;2.20;;;;;;;16.76;45.29;98726.19;1705740;84;21096;-43
2022/05/23 13:06:45;;;;;;;5.00;2.37;;;;;;;16.56;46.07;98725.30;1705918;84;21052;-43
2022/05/23 13:09:18;;;;;;;3.50;2.35;;;;;;;16.39;46.47;98732.60;1705509;84;21102;-43
2022/05/23 13:11:49;;;;;;;6.22;2.25;;;;;;;16.24;46.95;98725.01;1705994;84;21049;-43
2022/05/23 13:14:16;;;;;;;2.62;2.40;;;;;;;16.09;47.83;98727.16;1705704;84;21037;-43